Time;durP1;ratioP1;P1;durP2;ratioP2;P2;SDS_P1;SDS_P2;PMS_P1;PMS_P2;Temp;Humidity;BMP_temperature;BMP_pressure;BME280_temperature;BME280_humidity;BME280_pressure;Samples;Min_cycle;Max_cycle;Signal;HPM_P1;HPM_P2
2022/06/29 00:02:25;;;;;;;;;;;23.90;47.80;;;;;;5058173;28;19928;-61
2022/06/29 00:04:54;;;;;;;;;;;23.90;47.80;;;;;;5064315;28;19939;-61
2022/06/29 00:07:20;;;;;;;;;;;23.90;47.80;;;;;;5048712;28;19967;-61
2022/06/29 00:09:47;;;;;;;;;;;23.90;47.90;;;;;;5061976;28;19920;-61
2022/06/29 00:12:14;;;;;;;;;;;23.90;47.90;;;;;;5062983;28;19931;-61
2022/06/29 00:14:42;;;;;;;;;;;23.90;47.90;;;;;;5060744;28;20035;-62
2022/06/29 00:17:09;;;;;;;;;;;23.90;47.90;;;;;;5057911;28;19925;-60
2022/06/29 00:19:36;;;;;;;;;;;23.90;47.90;;;;;;5060024;28;19927;-61
2022/06/29 00:22:04;;;;;;;;;;;23.90;47.90;;;;;;5048212;28;20322;-61
2022/06/29 00:24:31;;;;;;;;;;;23.90;47.90;;;;;;5060100;28;19921;-61
2022/06/29 00:26:58;;;;;;;;;;;23.90;47.90;;;;;;5057912;28;19952;-61
2022/06/29 00:29:25;;;;;;;;;;;23.90;47.90;;;;;;5060735;28;19924;-61
2022/06/29 00:31:52;;;;;;;;;;;23.90;47.90;;;;;;5040099;28;19948;-62
2022/06/29 00:34:18;;;;;;;;;;;23.90;47.90;;;;;;5061529;28;19924;-61
2022/06/29 00:36:45;;;;;;;;;;;23.90;47.90;;;;;;5046739;28;19932;-60
2022/06/29 00:39:13;;;;;;;;;;;23.90;47.90;;;;;;5060694;28;20064;-60
2022/06/29 00:41:40;;;;;;;;;;;23.80;47.80;;;;;;5060198;28;20431;-57
2022/06/29 00:44:09;;;;;;;;;;;23.80;47.90;;;;;;5059997;28;19982;-61
2022/06/29 00:46:36;;;;;;;;;;;23.90;47.90;;;;;;5045884;28;19963;-61
2022/06/29 00:49:03;;;;;;;;;;;23.80;47.90;;;;;;5058054;28;20254;-61
2022/06/29 00:51:30;;;;;;;;;;;23.90;48.00;;;;;;5041836;28;19976;-60
2022/06/29 00:53:57;;;;;;;;;;;23.80;47.90;;;;;;5047155;28;20289;-61
2022/06/29 00:56:26;;;;;;;;;;;23.80;47.90;;;;;;5062533;28;19927;-61
2022/06/29 00:58:52;;;;;;;;;;;23.80;47.90;;;;;;5063729;28;19931;-61
2022/06/29 01:01:19;;;;;;;;;;;23.80;47.90;;;;;;5045974;28;19921;-61
2022/06/29 01:03:46;;;;;;;;;;;23.80;47.90;;;;;;5042586;28;19921;-61
2022/06/29 01:06:12;;;;;;;;;;;23.80;47.90;;;;;;5063342;28;19920;-60
2022/06/29 01:08:40;;;;;;;;;;;23.80;47.90;;;;;;5047302;28;19968;-60
2022/06/29 01:11:07;;;;;;;;;;;23.80;47.90;;;;;;5065260;28;19989;-60
2022/06/29 01:13:36;;;;;;;;;;;23.90;48.00;;;;;;5061763;28;20319;-60
2022/06/29 01:16:03;;;;;;;;;;;23.80;47.90;;;;;;5049108;28;19924;-59
2022/06/29 01:18:29;;;;;;;;;;;23.80;47.90;;;;;;5065409;28;19921;-60
2022/06/29 01:20:56;;;;;;;;;;;23.80;47.90;;;;;;5048487;28;20031;-60
2022/06/29 01:23:24;;;;;;;;;;;23.80;47.90;;;;;;5063872;28;19928;-60
2022/06/29 01:25:51;;;;;;;;;;;23.80;47.90;;;;;;5067815;28;20324;-60
2022/06/29 01:28:18;;;;;;;;;;;23.80;47.90;;;;;;5047731;28;19921;-60
2022/06/29 01:30:44;;;;;;;;;;;23.80;47.90;;;;;;5050620;28;19921;-60
2022/06/29 01:33:11;;;;;;;;;;;23.80;47.90;;;;;;5046465;28;19921;-60
2022/06/29 01:35:38;;;;;;;;;;;23.80;47.90;;;;;;5065847;28;20011;-60
2022/06/29 01:38:05;;;;;;;;;;;23.80;47.90;;;;;;5067818;28;20003;-59
2022/06/29 01:40:33;;;;;;;;;;;23.80;47.90;;;;;;5047043;28;19925;-60
2022/06/29 01:43:00;;;;;;;;;;;23.80;47.90;;;;;;5046243;28;19979;-60
2022/06/29 01:45:27;;;;;;;;;;;23.80;47.90;;;;;;5065335;28;19966;-59
2022/06/29 01:47:53;;;;;;;;;;;23.80;47.90;;;;;;5063194;28;19920;-60
2022/06/29 01:50:20;;;;;;;;;;;23.80;47.80;;;;;;5047659;28;20019;-60
2022/06/29 01:52:47;;;;;;;;;;;23.80;47.80;;;;;;5066049;28;19971;-60
2022/06/29 01:55:14;;;;;;;;;;;23.80;47.80;;;;;;5062996;28;19970;-60
2022/06/29 01:57:42;;;;;;;;;;;23.80;47.80;;;;;;5066011;28;19932;-60
2022/06/29 02:00:09;;;;;;;;;;;23.80;47.80;;;;;;5051644;28;20269;-59
2022/06/29 02:02:36;;;;;;;;;;;23.80;47.80;;;;;;5062827;28;19974;-60
2022/06/29 02:05:03;;;;;;;;;;;23.80;47.80;;;;;;5066871;28;19966;-60
2022/06/29 02:07:30;;;;;;;;;;;23.80;47.80;;;;;;5063837;28;19928;-59
2022/06/29 02:09:56;;;;;;;;;;;23.80;47.70;;;;;;5060556;28;19974;-60
2022/06/29 02:12:23;;;;;;;;;;;23.80;47.80;;;;;;5046951;28;19921;-60
2022/06/29 02:14:51;;;;;;;;;;;23.80;47.70;;;;;;5064375;28;19920;-59
2022/06/29 02:17:19;;;;;;;;;;;23.70;47.70;;;;;;5063795;28;19921;-60
2022/06/29 02:19:46;;;;;;;;;;;23.70;47.70;;;;;;5063293;28;19920;-61
2022/06/29 02:22:13;;;;;;;;;;;23.80;47.70;;;;;;5047143;28;19921;-60
2022/06/29 02:24:40;;;;;;;;;;;23.70;47.70;;;;;;5049973;28;19955;-59
2022/06/29 02:27:06;;;;;;;;;;;23.80;48.00;;;;;;5060135;28;19921;-60
2022/06/29 02:29:33;;;;;;;;;;;23.70;47.70;;;;;;5063620;28;19929;-57
2022/06/29 02:34:48;;;;;;;;;;;23.70;47.60;;;;;;5047074;28;20381;-60
2022/06/29 02:37:15;;;;;;;;;;;23.70;47.60;;;;;;5048613;28;20391;-60
2022/06/29 02:39:43;;;;;;;;;;;23.70;47.60;;;;;;5046701;28;19939;-59
2022/06/29 02:42:10;;;;;;;;;;;23.70;47.60;;;;;;5047007;28;20018;-59
2022/06/29 02:44:37;;;;;;;;;;;23.70;47.60;;;;;;5046572;28;19925;-60
2022/06/29 02:47:06;;;;;;;;;;;23.70;47.60;;;;;;5051784;28;19932;-60
2022/06/29 02:49:32;;;;;;;;;;;23.70;47.50;;;;;;5046097;28;20370;-60
2022/06/29 02:51:59;;;;;;;;;;;23.70;47.50;;;;;;5048852;28;19920;-59
2022/06/29 02:54:26;;;;;;;;;;;23.70;47.50;;;;;;5044485;28;19928;-60
2022/06/29 02:56:53;;;;;;;;;;;23.70;47.50;;;;;;5063600;28;19932;-59
2022/06/29 02:59:20;;;;;;;;;;;23.70;47.50;;;;;;5064157;28;20428;-60
2022/06/29 03:01:46;;;;;;;;;;;23.70;47.50;;;;;;5047369;28;20388;-59
2022/06/29 03:04:15;;;;;;;;;;;23.70;47.50;;;;;;5062993;28;19932;-60
2022/06/29 03:06:41;;;;;;;;;;;23.70;47.50;;;;;;5062563;28;19929;-60
2022/06/29 03:09:08;;;;;;;;;;;23.70;47.50;;;;;;5067726;28;19924;-59
2022/06/29 03:11:35;;;;;;;;;;;23.60;47.40;;;;;;5064547;28;19935;-59
2022/06/29 03:14:03;;;;;;;;;;;23.60;47.40;;;;;;5062110;28;20011;-60
2022/06/29 03:16:30;;;;;;;;;;;23.70;47.50;;;;;;5063913;28;19920;-61
2022/06/29 03:18:57;;;;;;;;;;;23.60;47.40;;;;;;5046012;28;19932;-60
2022/06/29 03:21:25;;;;;;;;;;;23.60;47.40;;;;;;5061691;28;19956;-60
2022/06/29 03:23:52;;;;;;;;;;;23.60;47.40;;;;;;5061792;28;19924;-60
2022/06/29 03:26:19;;;;;;;;;;;23.60;47.40;;;;;;5067007;28;20384;-60
2022/06/29 03:28:47;;;;;;;;;;;23.60;47.30;;;;;;5060102;28;19982;-59
2022/06/29 03:31:14;;;;;;;;;;;23.60;47.30;;;;;;5064360;28;19928;-60
2022/06/29 03:33:41;;;;;;;;;;;23.60;47.30;;;;;;5063596;28;20015;-59
2022/06/29 03:36:08;;;;;;;;;;;23.60;47.40;;;;;;5065450;28;19974;-60
2022/06/29 03:38:36;;;;;;;;;;;23.60;47.30;;;;;;5058720;28;19921;-60
2022/06/29 03:41:04;;;;;;;;;;;23.60;47.30;;;;;;5043518;28;19958;-59
2022/06/29 03:43:31;;;;;;;;;;;23.60;47.30;;;;;;5043472;28;19952;-60
2022/06/29 03:45:58;;;;;;;;;;;23.60;47.30;;;;;;5046246;28;19921;-60
2022/06/29 03:48:25;;;;;;;;;;;23.60;47.30;;;;;;5044331;28;19928;-59
2022/06/29 03:50:52;;;;;;;;;;;23.60;47.30;;;;;;5045209;28;20365;-60
2022/06/29 03:53:18;;;;;;;;;;;23.60;47.30;;;;;;5061763;28;19927;-60
2022/06/29 03:55:46;;;;;;;;;;;23.60;47.30;;;;;;5041137;28;19924;-58
2022/06/29 03:58:13;;;;;;;;;;;23.60;47.30;;;;;;5043226;28;19939;-59
2022/06/29 04:00:40;;;;;;;;;;;23.60;47.30;;;;;;5059276;28;20265;-60
2022/06/29 04:03:07;;;;;;;;;;;23.60;47.30;;;;;;5063026;28;19928;-59
2022/06/29 04:05:34;;;;;;;;;;;23.60;47.20;;;;;;5060598;28;19920;-60
2022/06/29 04:08:01;;;;;;;;;;;23.60;47.20;;;;;;5045249;28;19929;-60
2022/06/29 04:10:27;;;;;;;;;;;23.60;47.20;;;;;;5061511;28;19921;-60
2022/06/29 04:12:55;;;;;;;;;;;23.60;47.20;;;;;;5059744;28;19970;-59
2022/06/29 04:15:22;;;;;;;;;;;23.60;47.10;;;;;;5064050;28;19960;-59
2022/06/29 04:17:49;;;;;;;;;;;23.60;47.20;;;;;;5043102;28;20277;-60
2022/06/29 04:22:57;;;;;;;;;;;23.60;47.70;;;;;;5062373;28;19986;-59
2022/06/29 04:25:23;;;;;;;;;;;23.60;47.20;;;;;;5060696;28;19980;-59
2022/06/29 04:27:50;;;;;;;;;;;23.60;47.20;;;;;;5062741;28;19920;-59
2022/06/29 04:30:18;;;;;;;;;;;23.60;47.20;;;;;;5042099;28;19939;-60
2022/06/29 04:32:45;;;;;;;;;;;23.60;47.20;;;;;;5044356;28;19932;-59
2022/06/29 04:35:12;;;;;;;;;;;23.60;47.10;;;;;;5045041;28;19928;-59
2022/06/29 04:37:38;;;;;;;;;;;23.60;47.20;;;;;;5048096;28;19997;-59
2022/06/29 04:40:06;;;;;;;;;;;23.50;47.10;;;;;;5047172;28;20258;-59
2022/06/29 04:42:32;;;;;;;;;;;23.50;47.10;;;;;;5062427;28;19985;-60
2022/06/29 04:44:59;;;;;;;;;;;23.60;47.10;;;;;;5045630;28;19964;-60
2022/06/29 04:47:27;;;;;;;;;;;23.50;47.20;;;;;;5060500;28;19927;-59
2022/06/29 04:49:54;;;;;;;;;;;23.60;47.20;;;;;;5061512;28;20262;-60
2022/06/29 04:52:21;;;;;;;;;;;23.50;47.20;;;;;;5062699;28;20046;-60
2022/06/29 04:54:47;;;;;;;;;;;23.60;47.30;;;;;;5057521;28;19959;-59
2022/06/29 04:57:14;;;;;;;;;;;23.60;47.30;;;;;;5044320;28;19971;-59
2022/06/29 04:59:41;;;;;;;;;;;23.50;47.30;;;;;;5042059;28;19930;-60
2022/06/29 05:02:08;;;;;;;;;;;23.60;47.30;;;;;;5045246;28;20457;-59
2022/06/29 05:04:36;;;;;;;;;;;23.50;47.30;;;;;;5044380;28;19963;-59
2022/06/29 05:07:02;;;;;;;;;;;23.50;47.30;;;;;;5044896;28;20332;-59
2022/06/29 05:09:29;;;;;;;;;;;23.50;47.30;;;;;;5059168;28;19928;-60
2022/06/29 05:11:56;;;;;;;;;;;23.50;47.20;;;;;;5039445;28;20358;-60
2022/06/29 05:14:22;;;;;;;;;;;23.50;47.20;;;;;;5039572;28;19921;-59
2022/06/29 05:16:49;;;;;;;;;;;23.50;47.20;;;;;;5059193;28;19921;-59
2022/06/29 05:19:16;;;;;;;;;;;23.50;47.20;;;;;;5059787;28;19920;-59
2022/06/29 05:21:44;;;;;;;;;;;23.50;47.20;;;;;;5033666;28;19932;-59
2022/06/29 05:24:11;;;;;;;;;;;23.50;47.20;;;;;;5060926;28;19924;-60
2022/06/29 05:26:38;;;;;;;;;;;23.50;47.20;;;;;;5065037;28;20377;-59
2022/06/29 05:29:05;;;;;;;;;;;23.50;47.10;;;;;;5064284;28;20431;-60
2022/06/29 05:31:31;;;;;;;;;;;23.50;47.10;;;;;;5035623;28;19970;-61
2022/06/29 05:33:58;;;;;;;;;;;23.50;47.10;;;;;;5065207;28;19932;-58
2022/06/29 05:36:25;;;;;;;;;;;23.50;47.10;;;;;;5054844;28;19920;-59
2022/06/29 05:38:53;;;;;;;;;;;23.50;47.10;;;;;;5060872;28;20322;-60
2022/06/29 05:41:20;;;;;;;;;;;23.50;47.10;;;;;;5036071;28;19998;-59
2022/06/29 05:43:51;;;;;;;;;;;23.50;47.10;;;;;;5067540;28;19956;-58
2022/06/29 05:46:18;;;;;;;;;;;23.50;47.10;;;;;;5036443;28;19924;-60
2022/06/29 05:48:45;;;;;;;;;;;23.50;47.20;;;;;;5045716;28;19932;-60
2022/06/29 05:51:12;;;;;;;;;;;23.50;47.10;;;;;;5058831;28;19968;-59
2022/06/29 05:53:39;;;;;;;;;;;23.50;47.20;;;;;;5046353;28;19968;-60
2022/06/29 05:56:07;;;;;;;;;;;23.50;47.20;;;;;;5069492;28;19932;-59
2022/06/29 05:58:34;;;;;;;;;;;23.50;47.20;;;;;;5050150;28;19920;-60
2022/06/29 06:01:01;;;;;;;;;;;23.50;47.30;;;;;;5064583;28;19929;-60
2022/06/29 06:03:28;;;;;;;;;;;23.50;47.30;;;;;;5048704;28;20011;-59
2022/06/29 06:05:54;;;;;;;;;;;23.50;47.30;;;;;;5046280;28;19982;-59
2022/06/29 06:08:21;;;;;;;;;;;23.50;47.40;;;;;;5068178;28;20266;-60
2022/06/29 06:10:48;;;;;;;;;;;23.50;47.40;;;;;;5046979;28;19924;-59
2022/06/29 06:13:16;;;;;;;;;;;23.50;47.40;;;;;;5050177;28;19974;-60
2022/06/29 06:15:43;;;;;;;;;;;23.60;47.50;;;;;;5063955;28;20015;-59
2022/06/29 06:18:10;;;;;;;;;;;23.50;47.50;;;;;;5067568;28;19990;-59
2022/06/29 06:20:36;;;;;;;;;;;23.50;47.50;;;;;;5065546;28;20010;-58
2022/06/29 06:23:03;;;;;;;;;;;23.50;47.50;;;;;;5066068;28;19928;-59
2022/06/29 06:25:30;;;;;;;;;;;23.50;47.50;;;;;;5066719;28;19924;-60
2022/06/29 06:27:57;;;;;;;;;;;23.50;47.60;;;;;;5065140;28;19928;-59
2022/06/29 06:30:25;;;;;;;;;;;23.60;47.70;;;;;;5061820;28;20371;-59
2022/06/29 06:32:52;;;;;;;;;;;23.60;47.70;;;;;;5065928;28;19931;-59
2022/06/29 06:35:19;;;;;;;;;;;23.60;47.80;;;;;;5068147;28;19978;-59
2022/06/29 06:37:46;;;;;;;;;;;23.60;47.80;;;;;;5066446;28;19920;-58
2022/06/29 06:42:58;;;;;;;;;;;23.60;47.90;;;;;;5065679;28;19932;-59
2022/06/29 06:45:26;;;;;;;;;;;23.60;47.90;;;;;;5041306;28;19970;-56
2022/06/29 06:47:53;;;;;;;;;;;23.60;48.00;;;;;;5048035;28;19921;-58
2022/06/29 06:50:20;;;;;;;;;;;23.60;48.00;;;;;;5042627;28;19936;-59
2022/06/29 06:52:47;;;;;;;;;;;23.60;48.10;;;;;;5061873;28;20381;-60
2022/06/29 06:55:14;;;;;;;;;;;23.60;48.10;;;;;;5065247;28;19920;-58
2022/06/29 06:57:40;;;;;;;;;;;23.60;48.10;;;;;;5061617;28;19924;-59
2022/06/29 07:00:09;;;;;;;;;;;23.60;48.20;;;;;;5064536;28;19974;-58
2022/06/29 07:02:37;;;;;;;;;;;23.60;48.30;;;;;;5038014;28;19924;-59
2022/06/29 07:05:04;;;;;;;;;;;23.60;48.70;;;;;;5064258;28;20297;-59
2022/06/29 07:07:32;;;;;;;;;;;23.60;48.50;;;;;;5044770;28;20017;-60
2022/06/29 07:09:58;;;;;;;;;;;23.60;48.70;;;;;;5061599;28;19928;-59
2022/06/29 07:12:26;;;;;;;;;;;23.60;48.80;;;;;;5041383;28;19972;-64
2022/06/29 07:14:52;;;;;;;;;;;23.50;48.80;;;;;;5060868;28;19921;-65
2022/06/29 07:17:19;;;;;;;;;;;23.50;48.80;;;;;;5046919;28;20388;-62
2022/06/29 07:19:47;;;;;;;;;;;23.50;48.80;;;;;;5064123;28;19921;-63
2022/06/29 07:22:14;;;;;;;;;;;23.50;48.80;;;;;;5065696;28;19998;-64
2022/06/29 07:24:41;;;;;;;;;;;23.50;48.80;;;;;;5058560;28;19925;-64
2022/06/29 07:27:07;;;;;;;;;;;23.50;48.80;;;;;;5042551;28;19970;-63
2022/06/29 07:29:34;;;;;;;;;;;23.60;48.90;;;;;;5064284;28;19938;-63
2022/06/29 07:32:01;;;;;;;;;;;23.50;48.70;;;;;;5048703;28;20303;-63
2022/06/29 07:34:28;;;;;;;;;;;23.50;48.70;;;;;;5065065;28;19922;-65
2022/06/29 07:36:56;;;;;;;;;;;23.60;48.80;;;;;;5048933;28;19986;-62
2022/06/29 07:39:23;;;;;;;;;;;23.60;48.80;;;;;;5064266;28;19993;-63
2022/06/29 07:41:50;;;;;;;;;;;23.60;48.80;;;;;;5043854;28;19924;-62
2022/06/29 07:44:16;;;;;;;;;;;23.60;48.80;;;;;;5064056;28;19921;-63
2022/06/29 07:46:43;;;;;;;;;;;23.60;48.80;;;;;;5046269;28;20036;-62
2022/06/29 07:49:11;;;;;;;;;;;23.60;48.80;;;;;;5062578;28;19947;-63
2022/06/29 07:51:38;;;;;;;;;;;23.60;48.80;;;;;;5059137;28;19943;-63
2022/06/29 07:54:06;;;;;;;;;;;23.60;48.90;;;;;;5042059;28;19920;-63
2022/06/29 07:56:33;;;;;;;;;;;23.70;49.00;;;;;;5063281;28;19921;-63
2022/06/29 07:59:01;;;;;;;;;;;23.70;49.00;;;;;;5060855;28;19920;-63
2022/06/29 08:01:28;;;;;;;;;;;23.70;48.90;;;;;;5040161;28;20023;-63
2022/06/29 08:03:55;;;;;;;;;;;23.70;49.00;;;;;;5043861;28;20016;-63
2022/06/29 08:06:22;;;;;;;;;;;23.70;49.00;;;;;;5063702;28;19959;-63
2022/06/29 08:08:49;;;;;;;;;;;23.70;49.00;;;;;;5040600;28;19920;-63
2022/06/29 08:11:17;;;;;;;;;;;23.80;49.10;;;;;;5058798;28;20357;-63
2022/06/29 08:13:44;;;;;;;;;;;23.80;49.10;;;;;;5054626;28;19974;-63
2022/06/29 08:16:11;;;;;;;;;;;23.80;49.10;;;;;;5062242;28;19932;-63
2022/06/29 08:18:37;;;;;;;;;;;23.80;49.10;;;;;;5043334;28;19920;-63
2022/06/29 08:21:04;;;;;;;;;;;23.80;49.10;;;;;;5057040;28;19962;-63
2022/06/29 08:23:32;;;;;;;;;;;23.80;49.20;;;;;;5047626;28;19933;-63
2022/06/29 08:25:58;;;;;;;;;;;23.80;49.20;;;;;;5043897;28;19971;-63
2022/06/29 08:28:27;;;;;;;;;;;23.80;49.30;;;;;;5059379;28;19978;-63
2022/06/29 08:30:54;;;;;;;;;;;23.90;49.30;;;;;;5062603;28;19920;-63
2022/06/29 08:33:22;;;;;;;;;;;23.80;49.30;;;;;;5045483;28;19924;-63
2022/06/29 08:35:49;;;;;;;;;;;23.80;49.30;;;;;;5044596;28;19927;-63
2022/06/29 08:38:16;;;;;;;;;;;23.80;49.30;;;;;;5064049;28;19920;-62
2022/06/29 08:40:44;;;;;;;;;;;23.80;49.30;;;;;;5052510;28;19974;-63
2022/06/29 08:43:11;;;;;;;;;;;23.90;49.40;;;;;;5061347;28;19927;-64
2022/06/29 08:45:40;;;;;;;;;;;23.90;49.50;;;;;;5071965;28;19974;-64
2022/06/29 08:48:07;;;;;;;;;;;23.90;49.40;;;;;;5072712;28;19930;-63
2022/06/29 08:50:34;;;;;;;;;;;23.90;49.40;;;;;;5044913;28;19920;-63
2022/06/29 08:53:01;;;;;;;;;;;23.90;49.40;;;;;;5060784;28;19955;-64
2022/06/29 08:55:28;;;;;;;;;;;23.90;49.70;;;;;;5060177;28;19920;-64
2022/06/29 08:57:55;;;;;;;;;;;23.90;49.50;;;;;;5059229;28;19936;-63
2022/06/29 09:00:24;;;;;;;;;;;23.90;49.50;;;;;;5062528;28;19950;-66
2022/06/29 09:02:53;;;;;;;;;;;24.00;49.70;;;;;;5045485;28;19925;-65
2022/06/29 09:05:19;;;;;;;;;;;24.00;49.90;;;;;;5041827;28;19924;-63
2022/06/29 09:07:46;;;;;;;;;;;24.00;50.00;;;;;;5065956;28;20357;-64
2022/06/29 09:10:17;;;;;;;;;;;24.00;50.00;;;;;;5045194;28;19993;-64
2022/06/29 09:12:46;;;;;;;;;;;24.00;49.90;;;;;;5062671;28;19920;-64
2022/06/29 09:15:13;;;;;;;;;;;24.00;49.80;;;;;;5060046;28;19986;-64
2022/06/29 09:17:40;;;;;;;;;;;24.00;49.80;;;;;;5042583;28;19924;-64
2022/06/29 09:20:12;;;;;;;;;;;24.00;49.90;;;;;;5044162;28;19950;-64
2022/06/29 09:22:40;;;;;;;;;;;24.00;49.80;;;;;;5057164;28;19932;-65
2022/06/29 09:25:12;;;;;;;;;;;24.10;49.90;;;;;;5062848;28;19935;-66
2022/06/29 09:27:39;;;;;;;;;;;24.10;49.90;;;;;;5067440;28;19978;-62
2022/06/29 09:30:07;;;;;;;;;;;24.10;49.90;;;;;;5061896;28;20316;-63
2022/06/29 09:32:33;;;;;;;;;;;24.10;50.00;;;;;;5049877;28;19920;-64
2022/06/29 09:35:00;;;;;;;;;;;24.10;49.90;;;;;;5047444;28;19944;-64
2022/06/29 09:37:28;;;;;;;;;;;24.10;49.90;;;;;;5066252;28;19920;-64
2022/06/29 09:39:55;;;;;;;;;;;24.10;49.90;;;;;;5065590;28;19921;-63
2022/06/29 09:42:23;;;;;;;;;;;24.10;49.90;;;;;;5063618;28;19927;-63
2022/06/29 09:44:49;;;;;;;;;;;24.10;49.40;;;;;;5064154;28;20229;-64
2022/06/29 09:47:16;;;;;;;;;;;24.10;49.80;;;;;;5059102;28;19928;-63
2022/06/29 09:49:43;;;;;;;;;;;24.10;49.80;;;;;;5063210;28;20280;-63
2022/06/29 09:52:10;;;;;;;;;;;24.10;49.80;;;;;;5047469;28;19939;-66
2022/06/29 09:54:40;;;;;;;;;;;24.10;49.80;;;;;;5061389;28;19928;-64
2022/06/29 09:57:07;;;;;;;;;;;24.20;49.90;;;;;;5063518;28;19959;-64
2022/06/29 10:05:01;;;;;;;;;;;24.20;49.80;;;;;;5063698;28;19954;-64
2022/06/29 10:07:28;;;;;;;;;;;24.20;49.90;;;;;;5046958;28;19952;-65
2022/06/29 10:09:57;;;;;;;;;;;24.20;49.90;;;;;;5049560;28;19921;-64
2022/06/29 10:15:11;;;;;;;;;;;24.20;49.90;;;;;;5063789;28;19932;-65
2022/06/29 10:17:42;;;;;;;;;;;24.20;49.90;;;;;;5065086;28;19920;-65
2022/06/29 10:20:13;;;;;;;;;;;24.20;49.90;;;;;;5045245;28;19921;-64
2022/06/29 10:22:40;;;;;;;;;;;24.20;49.90;;;;;;5052617;28;19974;-64
2022/06/29 10:25:09;;;;;;;;;;;24.20;49.90;;;;;;5061853;28;19924;-64
2022/06/29 10:27:36;;;;;;;;;;;24.20;49.90;;;;;;5045315;28;19921;-64
2022/06/29 10:30:18;;;;;;;;;;;24.20;49.90;;;;;;5031748;28;19920;-64
2022/06/29 10:32:45;;;;;;;;;;;24.20;49.90;;;;;;5047395;28;19932;-65
2022/06/29 10:35:12;;;;;;;;;;;24.20;49.90;;;;;;5062809;28;19921;-65
2022/06/29 10:37:49;;;;;;;;;;;24.30;50.00;;;;;;5059625;28;20019;-64
2022/06/29 10:40:32;;;;;;;;;;;24.30;49.90;;;;;;5062997;28;20014;-64
2022/06/29 10:43:10;;;;;;;;;;;24.30;50.00;;;;;;5063656;28;19920;-64
2022/06/29 10:45:37;;;;;;;;;;;24.30;49.90;;;;;;5063728;28;19921;-66
2022/06/29 10:48:17;;;;;;;;;;;24.30;49.90;;;;;;5048367;28;20311;-65
2022/06/29 10:50:45;;;;;;;;;;;24.30;49.90;;;;;;5046115;28;19966;-60
2022/06/29 10:53:12;;;;;;;;;;;24.30;49.90;;;;;;5056898;28;19955;-60
2022/06/29 10:55:41;;;;;;;;;;;24.30;49.90;;;;;;5058801;28;20001;-60
2022/06/29 10:58:08;;;;;;;;;;;24.30;49.80;;;;;;5046022;28;19938;-60
2022/06/29 11:00:35;;;;;;;;;;;24.30;49.80;;;;;;5059255;28;19920;-60
2022/06/29 11:03:25;;;;;;;;;;;24.30;49.80;;;;;;5063055;28;20385;-60
2022/06/29 11:15:39;;;;;;;;;;;24.30;49.40;;;;;;5039982;28;20023;-60
2022/06/29 11:16:54;;;;;;;;;;;24.30;49.30;;;;;;5053062;28;19932;-60
2022/06/29 11:19:25;;;;;;;;;;;24.30;49.20;;;;;;5065014;28;19986;-60
2022/06/29 11:22:06;;;;;;;;;;;24.30;49.20;;;;;;5055375;28;20416;-64
2022/06/29 11:24:33;;;;;;;;;;;24.30;49.20;;;;;;5053963;28;19928;-63
2022/06/29 11:27:01;;;;;;;;;;;24.30;49.20;;;;;;5054261;28;20027;-63
2022/06/29 11:29:30;;;;;;;;;;;24.30;49.10;;;;;;5058222;28;19921;-64
2022/06/29 11:32:00;;;;;;;;;;;24.30;49.00;;;;;;5055190;28;19932;-64
2022/06/29 11:34:27;;;;;;;;;;;24.30;48.70;;;;;;5051351;28;20026;-64
2022/06/29 11:36:54;;;;;;;;;;;24.40;49.20;;;;;;5053495;28;19920;-64
2022/06/29 11:39:23;;;;;;;;;;;24.30;48.50;;;;;;5053317;28;19932;-64
2022/06/29 11:44:39;;;;;;;;;;;24.40;48.40;;;;;;5052485;28;19940;-64
2022/06/29 11:47:06;;;;;;;;;;;24.30;48.20;;;;;;5036510;28;19956;-64
2022/06/29 11:49:39;;;;;;;;;;;24.30;48.20;;;;;;5057262;28;19932;-64
2022/06/29 11:52:08;;;;;;;;;;;24.40;48.30;;;;;;5038509;28;19978;-64
2022/06/29 11:54:35;;;;;;;;;;;24.40;48.30;;;;;;5052385;28;19926;-64
2022/06/29 11:57:06;;;;;;;;;;;24.40;48.30;;;;;;5053754;28;19928;-63
2022/06/29 11:59:33;;;;;;;;;;;24.40;48.40;;;;;;5059706;28;19943;-64
2022/06/29 12:02:02;;;;;;;;;;;24.40;48.40;;;;;;5043739;28;20010;-64
2022/06/29 12:04:29;;;;;;;;;;;24.40;48.40;;;;;;5046254;28;19920;-65
2022/06/29 12:07:05;;;;;;;;;;;24.40;48.30;;;;;;5060450;28;20381;-60
2022/06/29 12:09:32;;;;;;;;;;;24.40;48.30;;;;;;5062633;28;20344;-63
2022/06/29 12:11:59;;;;;;;;;;;24.40;48.30;;;;;;5047266;28;19966;-66
2022/06/29 12:14:26;;;;;;;;;;;24.40;48.20;;;;;;5063826;28;19940;-63
2022/06/29 12:16:53;;;;;;;;;;;24.40;48.20;;;;;;5061281;28;19979;-63
2022/06/29 12:19:21;;;;;;;;;;;24.40;48.20;;;;;;5043564;28;20369;-63
2022/06/29 12:21:48;;;;;;;;;;;24.40;48.10;;;;;;5065240;28;19982;-63
2022/06/29 12:24:15;;;;;;;;;;;24.40;48.20;;;;;;5061270;28;20073;-64
2022/06/29 12:26:44;;;;;;;;;;;24.40;48.10;;;;;;5043537;28;22828;-64
2022/06/29 12:29:13;;;;;;;;;;;24.40;48.20;;;;;;5058813;28;19921;-64
2022/06/29 12:31:40;;;;;;;;;;;24.40;48.20;;;;;;5059567;28;19951;-62
2022/06/29 12:34:07;;;;;;;;;;;24.40;48.20;;;;;;5042844;28;20340;-59
2022/06/29 12:36:35;;;;;;;;;;;24.40;48.20;;;;;;5061519;28;19920;-63
2022/06/29 12:39:02;;;;;;;;;;;24.40;48.10;;;;;;5044624;28;20151;-65
2022/06/29 12:41:29;;;;;;;;;;;24.40;48.10;;;;;;5061091;28;19921;-63
2022/06/29 12:43:56;;;;;;;;;;;24.40;48.10;;;;;;5062364;28;19920;-63
2022/06/29 12:46:22;;;;;;;;;;;24.40;48.20;;;;;;5063353;28;19964;-63
2022/06/29 12:48:49;;;;;;;;;;;24.40;48.20;;;;;;5061439;28;19991;-64
2022/06/29 12:51:16;;;;;;;;;;;24.40;48.20;;;;;;5061104;28;19982;-59
2022/06/29 12:53:44;;;;;;;;;;;24.40;48.20;;;;;;5062621;28;19979;-60
2022/06/29 12:56:11;;;;;;;;;;;24.40;48.20;;;;;;5056308;28;20369;-64
2022/06/29 12:58:37;;;;;;;;;;;24.40;48.20;;;;;;5043845;28;19976;-63
2022/06/29 13:01:04;;;;;;;;;;;24.40;48.20;;;;;;5059038;28;19964;-63
2022/06/29 13:03:31;;;;;;;;;;;24.40;48.20;;;;;;5045267;28;19950;-63
2022/06/29 13:05:58;;;;;;;;;;;24.40;48.80;;;;;;5059832;28;19920;-64
2022/06/29 13:08:25;;;;;;;;;;;24.40;48.30;;;;;;5044530;28;19927;-63
2022/06/29 13:10:53;;;;;;;;;;;24.40;48.20;;;;;;5059335;28;19943;-63
2022/06/29 13:13:20;;;;;;;;;;;24.40;48.20;;;;;;5041640;28;19966;-60
2022/06/29 13:15:47;;;;;;;;;;;24.50;48.30;;;;;;5057505;28;20385;-64
2022/06/29 13:18:15;;;;;;;;;;;24.50;48.30;;;;;;5042396;28;20013;-64
2022/06/29 13:20:41;;;;;;;;;;;24.50;48.30;;;;;;5061409;28;19921;-63
2022/06/29 13:23:08;;;;;;;;;;;24.50;48.30;;;;;;5037872;28;19936;-63
2022/06/29 13:25:36;;;;;;;;;;;24.50;48.30;;;;;;5060135;28;19964;-59
2022/06/29 13:28:04;;;;;;;;;;;24.50;48.30;;;;;;5060849;28;20002;-64
2022/06/29 13:30:32;;;;;;;;;;;24.50;48.30;;;;;;5040873;28;19928;-63
2022/06/29 13:32:59;;;;;;;;;;;24.50;48.30;;;;;;5060627;28;19921;-63
2022/06/29 13:35:25;;;;;;;;;;;24.50;48.30;;;;;;5063397;28;20281;-63
2022/06/29 13:37:54;;;;;;;;;;;24.50;48.30;;;;;;5056905;28;20223;-62
2022/06/29 13:40:20;;;;;;;;;;;24.50;48.30;;;;;;5062050;28;20163;-63
2022/06/29 13:42:47;;;;;;;;;;;24.50;48.20;;;;;;5059721;28;19921;-63
2022/06/29 13:45:15;;;;;;;;;;;24.50;48.20;;;;;;5056470;28;19940;-65
2022/06/29 13:47:43;;;;;;;;;;;24.50;48.20;;;;;;5062084;28;19920;-63
2022/06/29 13:50:10;;;;;;;;;;;24.50;48.20;;;;;;5061578;28;20074;-64
2022/06/29 13:52:37;;;;;;;;;;;24.50;48.20;;;;;;5063990;28;19947;-62
2022/06/29 13:55:04;;;;;;;;;;;24.50;48.20;;;;;;5043501;28;19924;-62
2022/06/29 13:57:31;;;;;;;;;;;24.50;48.20;;;;;;5064718;28;19924;-63
2022/06/29 13:59:58;;;;;;;;;;;24.50;48.20;;;;;;5040961;28;20269;-63
2022/06/29 14:02:27;;;;;;;;;;;24.60;48.40;;;;;;5059072;28;20448;-63
2022/06/29 14:04:54;;;;;;;;;;;25.40;48.00;;;;;;5043966;28;19920;-63
2022/06/29 14:07:22;;;;;;;;;;;26.30;46.60;;;;;;5038616;28;19967;-62
2022/06/29 14:09:49;;;;;;;;;;;27.20;45.10;;;;;;5043230;28;19925;-62
2022/06/29 14:12:16;;;;;;;;;;;28.10;43.50;;;;;;5063237;28;19920;-63
2022/06/29 14:14:42;;;;;;;;;;;29.10;41.80;;;;;;5064753;28;19921;-61
2022/06/29 14:17:09;;;;;;;;;;;30.30;40.10;;;;;;5061163;28;20449;-62
2022/06/29 14:19:37;;;;;;;;;;;31.30;38.60;;;;;;5064219;28;19921;-62
2022/06/29 14:22:05;;;;;;;;;;;32.10;37.10;;;;;;5064949;28;19939;-63
2022/06/29 14:24:32;;;;;;;;;;;32.90;35.80;;;;;;5043256;28;19974;-63
2022/06/29 14:27:00;;;;;;;;;;;33.60;34.50;;;;;;5047078;28;19963;-62
2022/06/29 14:29:26;;;;;;;;;;;34.10;33.60;;;;;;5065693;28;19928;-62
2022/06/29 14:31:53;;;;;;;;;;;34.60;32.70;;;;;;5047984;28;20342;-63
2022/06/29 14:34:20;;;;;;;;;;;35.10;31.90;;;;;;5047146;28;19921;-63
2022/06/29 14:36:48;;;;;;;;;;;35.50;31.00;;;;;;5044815;28;20457;-62
2022/06/29 14:39:15;;;;;;;;;;;35.90;30.40;;;;;;5043147;28;19964;-63
2022/06/29 14:41:42;;;;;;;;;;;36.30;29.90;;;;;;5045024;28;19928;-63
2022/06/29 14:44:08;;;;;;;;;;;36.70;29.40;;;;;;5067208;28;20340;-64
2022/06/29 14:46:35;;;;;;;;;;;36.90;29.10;;;;;;5064673;28;19927;-59